Tiempo atmosférico en la estación meteorológica de Mosqueruela, Teruel (1505 m.)



Fecha
DESCASC
Temp. máxima en grados centígrados (hora)
DESCASC
Temp. mínima en grados centígrados (hora)
DESCASC
Temp. media en grados centígrados
DESCASC
Racha de viento máxima en m/sg (hora)
DESCASC
Velocidad máxima media en intervalos de 10 minutos(hora)
DESCASC
Precipitaciones diarias en mm
DESCASC
Precipitaciones de 00:00 a 06:00 en mm
DESCASC
Precipitaciones de 06:00 a 12:00 en mm
DESCASC
Precipitaciones de 12:00 a 18:00 en mm
DESCASC
Precipitaciones de 18:00 a 24:00 en mm
DESCASC
20-08-2019 17.8 (10:50) 12.9 (00:00) 15.3 6.39 (14:10) 3.89 (14:10) 2.4 0 0 2.4 0
23-08-2019 23.6 (15:10) 10.5 (00:00) 17.1 9.17 (16:20) 5 (17:00) 0 0 0 0 0
15-08-2019 24.2 (12:20) 13.5 (00:00) 18.9 8.06 (12:00) 5 (12:00) 2.2 0 0 1.8 0.4
24-08-2019 23.9 (13:50) 11.7 (00:00) 17.8 9.17 (14:40) 5.28 (14:40) 0 0 0 0 0
29-07-2019 26.4 (14:50) 12 (00:00) 19.2 11.39 (14:50) 5.83 (18:00) 0 0 0 0 0
01-08-2019 26 (13:50) 13.6 (00:00) 19.8 9.17 (15:20) 5.83 (10:30) 0 0 0 0 0
14-08-2019 26.4 (17:10) 11.2 (00:00) 18.8 10 (17:20) 5.83 (15:50) 0 0 0 0 0
09-08-2019 31.4 (16:50) 17.4 (00:00) 24.4 11.11 (14:50) 5.83 (17:10) 0 0 0 0 0
30-07-2019 24.1 (14:20) 13.4 (00:00) 18.8 10 (17:10) 6.11 (17:10) 0 0 0 0 0
02-08-2019 27.1 (13:10) 14.6 (00:00) 20.9 10.56 (12:30) 6.11 (11:20) 0 0 0 0 0
10-08-2019 27.4 (13:20) 16.8 (00:00) 22.1 10.56 (12:40) 6.39 (06:40) 0 0 0 0 0
22-08-2019 23.3 (16:40) 11.4 (00:00) 17.3 9.17 (15:20) 6.39 (03:00) 0 0 0 0 0
16-08-2019 26 (15:00) 12.2 (00:00) 19.1 10.56 (14:50) 6.39 (14:50) 0 0 0 0 0
03-08-2019 26.8 (15:20) 16.2 (00:00) 21.5 10.56 (17:00) 6.39 (13:30) 0 0 0 0 0
05-08-2019 28.6 (15:00) 18.4 (00:00) 23.5 9.44 (15:00) 6.39 (12:20) 0 0 0 0 0
31-07-2019 20.8 (13:20) 10.9 (00:00) 15.8 10 (13:40) 6.67 (13:40) 0 0 0 0 0
06-08-2019 29.5 (14:10) 18.7 (00:00) 24.1 10.28 (17:00) 6.67 (08:40) 0 0 0 0 0
04-08-2019 29.5 (13:20) 17.9 (00:00) 23.7 11.39 (13:20) 6.94 (17:30) 0 0 0 0 0
17-08-2019 29.6 (14:00) 18 (00:00) 23.8 11.67 (13:50) 6.94 (17:10) 0 0 0 0 0
19-08-2019 25.3 (14:30) 14.8 (00:00) 20 10.28 (14:10) 6.94 (16:50) 0 0 0 0 0
11-08-2019 27.6 (16:20) 16.1 (00:00) 21.9 12.78 (11:50) 7.22 (12:00) 0 0 0 0 0
13-08-2019 19.2 (13:50) 9.9 (00:00) 14.6 12.78 (15:10) 7.22 (00:20) 3.4 0 0 3.4 0
18-08-2019 29.5 (13:50) 18.2 (00:00) 23.9 12.5 (13:30) 7.22 (13:30) 0.2 0 0 0.2 0
27-07-2019 22 (15:30) 11 (00:00) 16.5 14.44 (14:00) 8.33 (23:10) 0 0 0 0 0
08-08-2019 29.3 (15:20) 14.5 (00:00) 21.9 12.22 (07:00) 8.33 (07:00) 0 0 0 0 0
12-08-2019 22.3 (15:10) 11.4 (00:00) 16.8 11.11 (23:50) 8.61 (23:50) 0 0 0 0 0
07-08-2019 27.5 (15:40) 16.8 (00:00) 22.1 12.78 (07:40) 8.89 (07:50) 0 0 0 0 0
26-07-2019 24.1 (12:30) 11.4 (00:00) 17.8 19.72 (16:30) 9.17 (16:30) 20.4 0 0 20.2 0.2
21-08-2019 21.6 (13:20) 11.2 (00:00) 16.4 11.67 (18:00) 9.44 (18:00) 17.2 0 0.2 16.4 0.6
28-07-2019 23.8 (16:00) 7.9 (00:00) 15.8 22.22 (07:40) 18.06 (07:30) 0 0 0 0 0

Gráficas

Temp. máximas Temp. mínimas Temp. medias Precipitaciones Rachas de viento máximas Velocidades máximas media en intervalos de 10 minutos

Datos horarios

Fecha y hora oficial Temperatura (ºC) Velocidad del viento (km/h) Dirección del viento Racha (km/h) Dirección de racha Precipitación (mm) Presión (hPa) Tendencia (hPa) Humedad (%)
2019-08-24 23:00:00 13.9 3 Sudoeste 10 Sudoeste 0 -- -- 66
2019-08-24 22:00:00 14.5 8 Sudoeste 10 Sudoeste 0 -- -- 76
2019-08-24 21:00:00 16.1 3 Oeste 15 Este 0 -- -- 79
2019-08-24 20:00:00 18.7 12 Este 18 Este 0 -- -- 71
2019-08-24 19:00:00 19 12 Este 27 Nordeste 0 -- -- 71
2019-08-24 18:00:00 21.6 16 Este 29 Este 0 -- -- 62
2019-08-24 17:00:00 20.9 12 Este 30 Este 0 -- -- 61
2019-08-24 16:00:00 23.4 13 Este 27 Este 0 -- -- 50
2019-08-24 15:00:00 22.8 11 Este 33 Este 0 -- -- 46
2019-08-24 14:00:00 23.6 17 Este 29 Este 0 -- -- 43
2019-08-24 13:00:00 23 11 Este 22 Este 0 -- -- 42
2019-08-24 12:00:00 22.7 12 Nordeste 19 Este 0 -- -- 41
2019-08-24 11:00:00 21.2 6 Este 13 Este 0 -- -- 45
2019-08-24 10:00:00 19.7 3 Sur 6 Este 0 -- -- 50
2019-08-24 09:00:00 18.3 0 Calma 6 Oeste 0 -- -- 57
2019-08-24 08:00:00 13.9 5 Oeste 10 Oeste 0 -- -- 62
2019-08-24 07:00:00 12.4 6 Oeste 10 Oeste 0 -- -- 65
2019-08-24 06:00:00 12.1 7 Oeste 13 Sudoeste 0 -- -- 67
2019-08-24 05:00:00 12.1 12 Sudoeste 14 Sudoeste 0 -- -- 66
2019-08-24 04:00:00 12.5 9 Sudoeste 12 Sudoeste 0 -- -- 64
2019-08-24 03:00:00 12.5 10 Sudoeste 12 Sudoeste 0 -- -- 59
2019-08-24 02:00:00 12.8 9 Sudoeste 13 Sudoeste 0 -- -- 75
2019-08-24 01:00:00 13 8 Sudoeste 13 Sudoeste 0 -- -- 77
2019-08-24 00:00:00 13 9 Sudoeste 10 Sudoeste 0 -- -- 74
2019-08-23 23:00:00 13.5 7 Sudoeste 9 Sudoeste 0 -- -- 79
2019-08-23 22:00:00 14 5 Sudoeste 7 Sudoeste 0 -- -- 82
2019-08-23 21:00:00 16.1 3 Sur 18 Este 0 -- -- 73
2019-08-23 20:00:00 18.6 15 Este 26 Este 0 -- -- 63
2019-08-23 19:00:00 20.8 16 Este 26 Este 0 -- -- 57
2019-08-23 18:00:00 21.9 17 Este 27 Este 0 -- -- 55
2019-08-23 17:00:00 22 18 Este 33 Este 0 -- -- 54
2019-08-23 16:00:00 23.5 15 Sudeste 26 Sudeste 0 -- -- 44
2019-08-23 15:00:00 23.2 11 Este 26 Sudeste 0 -- -- 44
2019-08-23 14:00:00 22.5 12 Sudeste 23 Este 0 -- -- 40
2019-08-23 13:00:00 22.6 5 Norte 17 Este 0 -- -- 37
2019-08-23 12:00:00 21.3 6 Sudeste 17 Sudoeste 0 -- -- 38
2019-08-23 11:00:00 19.6 7 Sudeste 17 Sudoeste 0 -- -- 41
2019-08-23 10:00:00 18.2 9 Sudeste 15 Sudeste 0 -- -- 42
2019-08-23 09:00:00 16.7 5 Sudeste 8 Sudoeste 0 -- -- 57
2019-08-23 08:00:00 11.7 8 Sudoeste 14 Sudoeste 0 -- -- 72
2019-08-23 07:00:00 10.5 11 Sudoeste 14 Sudoeste 0 -- -- 77
2019-08-23 06:00:00 11.3 11 Sudoeste 14 Sudoeste 0 -- -- 83
2019-08-23 05:00:00 11 9 Sudoeste 12 Sudoeste 0 -- -- 87
2019-08-23 04:00:00 11.7 6 Sudoeste 10 Sudoeste 0 -- -- 90
2019-08-23 03:00:00 13.1 6 Sudoeste 10 Sur 0 -- -- 89
2019-08-23 02:00:00 13.2 9 Sudoeste 17 Sudoeste 0 -- -- 87
2019-08-23 01:00:00 12.9 6 Sudoeste 14 Sudoeste 0 -- -- 90
2019-08-23 00:00:00 13.5 4 Sudoeste 10 Sudoeste 0 -- -- 91
2019-08-22 23:00:00 14.1 9 Sudoeste 14 Sudoeste 0 -- -- 90
2019-08-22 22:00:00 14.6 4 Sudoeste 12 Sudoeste 0 -- -- 89
2019-08-22 21:00:00 15.8 6 Sudoeste 12 Sur 0 -- -- 87
2019-08-22 20:00:00 17.3 7 Sudeste 18 Este 0 -- -- 82
2019-08-22 19:00:00 18.2 11 Este 21 Nordeste 0 -- -- 78
2019-08-22 18:00:00 21 12 Sudeste 19 Este 0 -- -- 66
2019-08-22 17:00:00 21.4 15 Nordeste 28 Este 0 -- -- 65
2019-08-22 16:00:00 21.9 4 Norte 33 Este 0 -- -- 53
2019-08-22 15:00:00 22.6 10 Este 19 Este 0 -- -- 57
2019-08-22 14:00:00 21.6 10 Este 21 Este 0 -- -- 59
2019-08-22 13:00:00 20 11 Sudeste 21 Sur 0 -- -- 63
2019-08-22 12:00:00 20.5 7 Este 18 Sudeste 0 -- -- 59
2019-08-22 11:00:00 18.7 5 Nordeste 11 Este 0 -- -- 69
2019-08-22 10:00:00 17.2 5 Este 8 Nordeste 0 -- -- 77
2019-08-22 09:00:00 15.8 4 Norte 6 Norte 0 -- -- 82
2019-08-22 08:00:00 12.6 0 Calma 14 Noroeste 0 -- -- 92
2019-08-22 07:00:00 11.8 10 Noroeste 17 Noroeste 0 -- -- 95
2019-08-22 06:00:00 11.8 14 Noroeste 18 Noroeste 0 -- -- 94
2019-08-22 05:00:00 12.4 14 Noroeste 22 Noroeste 0 -- -- 94
2019-08-22 04:00:00 12.7 17 Noroeste 26 Noroeste 0 -- -- 92
2019-08-22 03:00:00 13.3 23 Oeste 29 Oeste 0 -- -- 86
2019-08-22 02:00:00 13.8 17 Noroeste 27 Noroeste 0 -- -- 70
2019-08-22 01:00:00 12.5 18 Noroeste 21 Noroeste 0 -- -- 76
2019-08-22 00:00:00 12.2 9 Noroeste 17 Noroeste 0 -- -- 80
2019-08-21 23:00:00 13.4 11 Oeste 20 Oeste 0 -- -- 77
2019-08-21 22:00:00 12.7 10 Oeste 34 Oeste 0 -- -- 83
2019-08-21 21:00:00 12.5 23 Oeste 40 Sudoeste 0 -- -- 92
2019-08-21 20:00:00 12.3 6 Oeste 13 Noroeste 0 -- -- 96
2019-08-21 19:00:00 12.3 12 Noroeste 41 Oeste 0.6 -- -- 92
2019-08-21 18:00:00 11.2 34 Oeste 42 Oeste 11.8 -- -- 96
2019-08-21 17:00:00 14.9 9 Sur 15 Sur 0 -- -- 99
2019-08-21 16:00:00 15.3 5 Sudeste 23 Este 4.6 -- -- 99
2019-08-21 15:00:00 16.6 21 Nordeste 37 Este 0 -- -- 91
2019-08-21 14:00:00 18.4 21 Sur 30 Sur 0 -- -- 83
2019-08-21 13:00:00 19.8 6 Sudoeste 19 Sur 0 -- -- 68
2019-08-21 12:00:00 16.2 12 Sur 19 Sur 0 -- -- 94
2019-08-21 11:00:00 14.3 9 Sur 15 Sur 0.2 -- -- 99
2019-08-21 10:00:00 13.7 10 Sur 16 Sudeste 0 -- -- 100
2019-08-21 09:00:00 13.5 6 Sur 14 Sur 0 -- -- 100
2019-08-21 08:00:00 13.1 7 Sur 13 Sudeste 0 -- -- 100
2019-08-21 07:00:00 13 8 Sur 14 Sudeste 0 -- -- 100
2019-08-21 06:00:00 13 6 Sur 13 Sudoeste 0 -- -- 99
2019-08-21 05:00:00 12.8 9 Sur 17 Sur 0 -- -- 100
2019-08-21 04:00:00 12.7 4 Sudeste 8 Sudeste 0 -- -- 100
2019-08-21 03:00:00 12.6 4 Sur 8 Sur 0 -- -- 99
2019-08-21 02:00:00 12.7 2 Sudoeste 5 Sudoeste 0 -- -- 96
2019-08-21 01:00:00 12.7 3 Sudeste 9 Este 0 -- -- 97
2019-08-21 00:00:00 12.9 6 Este 13 Este 0 -- -- 98
2019-08-20 23:00:00 13.7 7 Este 12 Este 0 -- -- 93
2019-08-20 22:00:00 13.9 3 Nordeste 8 Norte 0 -- -- 87
2019-08-20 21:00:00 13.9 2 Este 8 Nordeste 0 -- -- 90
2019-08-20 20:00:00 14.2 4 Este 14 Nordeste 0 -- -- 90
2019-08-20 19:00:00 14.2 2 Noroeste 14 Este 0 -- -- 89
2019-08-20 18:00:00 14.4 8 Este 11 Este 0 -- -- 96
2019-08-20 17:00:00 14.3 6 Nordeste 16 Norte 0 -- -- 97
2019-08-20 16:00:00 14.5 5 Norte 15 Noroeste 1 -- -- 98
2019-08-20 15:00:00 13.7 13 Noroeste 23 Noroeste 1.4 -- -- 97
2019-08-20 14:00:00 15.4 12 Norte 18 Norte 0 -- -- 86
2019-08-20 13:00:00 15.6 8 Norte 17 Norte 0 -- -- 87
2019-08-20 12:00:00 16.1 10 Norte 18 Este 0 -- -- 88
2019-08-20 11:00:00 17.6 12 Este 20 Este 0 -- -- 87
2019-08-20 10:00:00 17.2 7 Este 13 Este 0 -- -- 87
2019-08-20 09:00:00 16 3 Sudeste 11 Sudeste 0 -- -- 94
2019-08-20 08:00:00 15.2 5 Sudeste 14 Este 0 -- -- 97
2019-08-20 07:00:00 15.2 9 Este 14 Este 0 -- -- 97
2019-08-20 06:00:00 15.2 4 Este 12 Este 0 -- -- 96
2019-08-20 05:00:00 15.2 7 Este 13 Sudeste 0 -- -- 95
2019-08-20 04:00:00 15 9 Sudeste 15 Este 0 -- -- 96
2019-08-20 03:00:00 15.1 6 Sudeste 11 Este 0 -- -- 97
2019-08-20 02:00:00 15.8 8 Este 17 Este 0 -- -- 94
2019-08-20 01:00:00 16.2 10 Este 15 Este 0 -- -- 96
2019-08-20 00:00:00 16.4 5 Este 9 Este 0 -- -- 96
2019-08-19 23:00:00 16.7 4 Sudeste 15 Este 0 -- -- 94
2019-08-19 22:00:00 17.3 12 Este 18 Este 0 -- -- 91
2019-08-19 21:00:00 17.8 13 Este 24 Este 0 -- -- 90
2019-08-19 20:00:00 19.5 14 Sudeste 26 Sudeste 0 -- -- 84
2019-08-19 19:00:00 22.1 17 Sudeste 30 Este 0 -- -- 68
2019-08-19 18:00:00 21.7 19 Este 33 Este 0 -- -- 73
2019-08-19 17:00:00 22.2 24 Este 35 Este 0 -- -- 70
2019-08-19 16:00:00 24.2 22 Este 36 Este 0 -- -- 62
2019-08-19 15:00:00 25.1 15 Sudeste 37 Este 0 -- -- 55
2019-08-19 14:00:00 24.4 21 Este 32 Este 0 -- -- 60
2019-08-19 13:00:00 23.1 16 Sudeste 32 Este 0 -- -- 63
2019-08-19 12:00:00 23.5 15 Este 25 Este 0 -- -- 57
2019-08-19 11:00:00 21.9 11 Este 18 Este 0 -- -- 59
2019-08-19 10:00:00 20.7 8 Este 14 Este 0 -- -- 63
2019-08-19 09:00:00 19.7 4 Este 6 Nordeste 0 -- -- 61
2019-08-19 08:00:00 17.7 0 Calma 14 Sudoeste 0 -- -- 59
2019-08-19 07:00:00 15.9 11 Sudoeste 13 Sudoeste 0 -- -- 57
2019-08-19 06:00:00 15.6 2 Oeste 12 Sudoeste 0 -- -- 57
2019-08-19 05:00:00 16.7 0 Calma 8 Oeste 0 -- -- 56
2019-08-19 04:00:00 17.8 3 Noroeste 20 Oeste 0 -- -- 53
2019-08-19 03:00:00 19 13 Sudoeste 18 Sudoeste 0 -- -- 58
2019-08-19 02:00:00 19.6 15 Sudoeste 17 Sudoeste 0 -- -- 56
2019-08-19 01:00:00 19.6 13 Sudoeste 19 Sudoeste 0 -- -- 58
2019-08-19 00:00:00 20.1 14 Sudoeste 19 Sudoeste 0 -- -- 50
2019-08-18 23:00:00 20.1 12 Sudoeste 19 Sur 0 -- -- 53
2019-08-18 22:00:00 20.6 12 Sudoeste 22 Sur 0 -- -- 56
2019-08-18 21:00:00 21.1 12 Sur 19 Sur 0 -- -- 63
2019-08-18 20:00:00 23.8 13 Sur 28 Sur 0 -- -- 58
2019-08-18 19:00:00 26.2 18 Sur 30 Sudeste 0 -- -- 54
2019-08-18 18:00:00 25.8 21 Sudeste 36 Sur 0 -- -- 56
2019-08-18 17:00:00 25.5 8 Sur 29 Sudeste 0.2 -- -- 55
2019-08-18 16:00:00 27.4 18 Sur 36 Sur 0 -- -- 43
2019-08-18 15:00:00 27.9 17 Sur 43 Sudeste 0 -- -- 36
2019-08-18 14:00:00 28.8 22 Sudoeste 45 Sudoeste 0 -- -- 28
2019-08-18 13:00:00 28.9 20 Sur 42 Sur 0 -- -- 26
2019-08-18 12:00:00 28.6 17 Sur 32 Oeste 0 -- -- 28
2019-08-18 11:00:00 27.7 14 Sudoeste 29 Sudoeste 0 -- -- 30
2019-08-18 10:00:00 26.9 12 Sudoeste 27 Sudoeste 0 -- -- 30
2019-08-18 09:00:00 24.2 12 Sudoeste 22 Sudoeste 0 -- -- 38
2019-08-18 08:00:00 20.6 16 Sudoeste 22 Sudoeste 0 -- -- 46
2019-08-18 07:00:00 19.5 16 Sudoeste 19 Sudoeste 0 -- -- 50
2019-08-18 06:00:00 19.5 12 Sudoeste 18 Sudoeste 0 -- -- 49
2019-08-18 05:00:00 19.2 13 Sudoeste 17 Sudoeste 0 -- -- 53
2019-08-18 04:00:00 18.2 14 Sudoeste 17 Sudoeste 0 -- -- 59
2019-08-18 03:00:00 19.3 14 Sudoeste 18 Sudoeste 0 -- -- 56
2019-08-18 02:00:00 19.5 13 Sudoeste 20 Sudoeste 0 -- -- 58
2019-08-18 01:00:00 20 13 Sudoeste 26 Sur 0 -- -- 58
2019-08-18 00:00:00 21.1 17 Sudoeste 29 Sur 0 -- -- 57
2019-08-17 23:00:00 21.3 16 Sudoeste 27 Sudoeste 0 -- -- 52
2019-08-17 22:00:00 21.6 16 Sudoeste 28 Sudoeste 0 -- -- 52
2019-08-17 21:00:00 21.8 15 Sudoeste 26 Sur 0 -- -- 58
2019-08-17 20:00:00 23.6 17 Sur 28 Sur 0 -- -- 61
2019-08-17 19:00:00 25.2 22 Sur 32 Sur 0 -- -- 59
2019-08-17 18:00:00 27.1 21 Sur 37 Sur 0 -- -- 52
2019-08-17 17:00:00 27.7 20 Sur 35 Sur 0 -- -- 52
2019-08-17 16:00:00 28.1 23 Sudeste 40 Sudeste 0 -- -- 49
2019-08-17 15:00:00 27.9 13 Sur 30 Sudoeste 0 -- -- 43
2019-08-17 14:00:00 29.6 18 Sur 42 Sur 0 -- -- 30
2019-08-17 13:00:00 28.5 19 Sudoeste 41 Sudoeste 0 -- -- 29
2019-08-17 12:00:00 27.6 20 Sudoeste 35 Sudoeste 0 -- -- 32
2019-08-17 11:00:00 27 18 Sudoeste 34 Oeste 0 -- -- 32
2019-08-17 10:00:00 26.1 12 Sur 19 Sudoeste 0 -- -- 35
2019-08-17 09:00:00 24.8 5 Sudoeste 19 Oeste 0 -- -- 38
2019-08-17 08:00:00 20.6 11 Oeste 21 Oeste 0 -- -- 48
2019-08-17 07:00:00 18.3 14 Sudoeste 17 Sudoeste 0 -- -- 58
2019-08-17 06:00:00 19 14 Sudoeste 17 Sudoeste 0 -- -- 58
2019-08-17 05:00:00 18.8 15 Sudoeste 17 Sudoeste 0 -- -- 59
2019-08-17 04:00:00 19.1 17 Sudoeste 21 Oeste 0 -- -- 57
2019-08-17 03:00:00 18.6 12 Sudoeste 23 Oeste 0 -- -- 60
2019-08-17 02:00:00 19.2 17 Sudoeste 24 Sudoeste 0 -- -- 62
2019-08-17 01:00:00 18.9 19 Sudoeste 27 Sudoeste 0 -- -- 71
2019-08-17 00:00:00 18.8 18 Sudoeste 23 Sudoeste 0 -- -- 77
2019-08-16 23:00:00 18.8 17 Sudoeste 26 Sudoeste 0 -- -- 78
2019-08-16 22:00:00 18.2 12 Sudoeste 15 Sur 0 -- -- 89
2019-08-16 21:00:00 18.9 6 Este 17 Nordeste 0 -- -- 89
2019-08-16 20:00:00 21.2 9 Este 23 Sur 0 -- -- 79
2019-08-16 19:00:00 23 15 Sur 28 Sur 0 -- -- 71
2019-08-16 18:00:00 24.6 20 Sudeste 33 Sur 0 -- -- 64
2019-08-16 17:00:00 25.4 14 Este 35 Este 0 -- -- 61
2019-08-16 16:00:00 25.6 15 Este 30 Sudeste 0 -- -- 61
2019-08-16 15:00:00 26 22 Sur 38 Sur 0 -- -- 47
2019-08-16 14:00:00 24.9 19 Sudeste 33 Sur 0 -- -- 50
2019-08-16 13:00:00 24.3 20 Sur 32 Sur 0 -- -- 51
2019-08-16 12:00:00 22.6 22 Sur 30 Sur 0 -- -- 56
2019-08-16 11:00:00 20.8 18 Sudeste 26 Sudeste 0 -- -- 60
2019-08-16 10:00:00 19.2 15 Sudeste 21 Sudeste 0 -- -- 62
2019-08-16 09:00:00 18.7 9 Sur 21 Sur 0 -- -- 64
2019-08-16 08:00:00 16.2 9 Sudoeste 14 Sur 0 -- -- 68
2019-08-16 07:00:00 13.9 8 Sudoeste 12 Sur 0 -- -- 81
2019-08-16 06:00:00 12.3 4 Sur 6 Sur 0 -- -- 88
2019-08-16 05:00:00 13.9 5 Sur 7 Sur 0 -- -- 87
2019-08-16 04:00:00 13.6 3 Sur 9 Sudoeste 0 -- -- 92
2019-08-16 03:00:00 14.2 7 Sudoeste 9 Sudoeste 0 -- -- 89
2019-08-16 02:00:00 13.9 5 Sudoeste 9 Sudoeste 0 -- -- 82
2019-08-16 01:00:00 14.6 5 Oeste 13 Sudoeste 0 -- -- 75
2019-08-16 00:00:00 14.9 6 Oeste 9 Noroeste 0 -- -- 83
2019-08-15 23:00:00 16.5 7 Noroeste 12 Norte 0 -- -- 88
2019-08-15 22:00:00 16.8 7 Noroeste 9 Oeste 0 -- -- 90
2019-08-15 21:00:00 17.9 2 Sudoeste 7 Noroeste 0 -- -- 89
2019-08-15 20:00:00 19.3 4 Oeste 9 Sudeste 0 -- -- 89
2019-08-15 19:00:00 18.2 8 Nordeste 12 Nordeste 0.4 -- -- 95
2019-08-15 18:00:00 18.9 4 Norte 22 Este 1.8 -- -- 95
2019-08-15 17:00:00 21.8 15 Nordeste 26 Este 0 -- -- 73
2019-08-15 16:00:00 23.4 6 Este 17 Este 0 -- -- 61
2019-08-15 15:00:00 22.3 12 Este 23 Este 0 -- -- 63
2019-08-15 14:00:00 21.7 14 Este 22 Nordeste 0 -- -- 61
2019-08-15 13:00:00 22.4 13 Nordeste 27 Este 0 -- -- 51
2019-08-15 12:00:00 23.8 18 Sudeste 29 Este 0 -- -- 47
2019-08-15 11:00:00 22.9 14 Este 21 Este 0 -- -- 48
2019-08-15 10:00:00 21.7 8 Sudeste 17 Sudeste 0 -- -- 52
2019-08-15 09:00:00 19.8 8 Sudeste 12 Sudeste 0 -- -- 52
2019-08-15 08:00:00 17.2 2 Sur 14 Sudoeste 0 -- -- 62
2019-08-15 07:00:00 15.3 10 Sudoeste 14 Sudoeste 0 -- -- 68
2019-08-15 06:00:00 14.1 10 Sudoeste 13 Sudoeste 0 -- -- 74
2019-08-15 05:00:00 13.8 5 Sudoeste 11 Sudoeste 0 -- -- 81
2019-08-15 04:00:00 13.5 6 Sudoeste 10 Oeste 0 -- -- 76
2019-08-15 03:00:00 15.5 5 Sudoeste 10 Sudoeste 0 -- -- 68
2019-08-15 02:00:00 16 6 Oeste 12 Sudoeste 0 -- -- 75
2019-08-15 01:00:00 16.4 7 Sudoeste 13 Sudoeste 0 -- -- 70
2019-08-15 00:00:00 16 12 Sudoeste 13 Sudoeste 0 -- -- 71
2019-08-14 23:00:00 16.2 9 Sudoeste 12 Sudoeste 0 -- -- 85
2019-08-14 22:00:00 16.9 5 Sudoeste 8 Sudoeste 0 -- -- 85
2019-08-14 21:00:00 19.5 5 Este 14 Este 0 -- -- 78
2019-08-14 20:00:00 21.9 11 Este 21 Sur 0 -- -- 68
2019-08-14 19:00:00 25.6 14 Noroeste 33 Noroeste 0 -- -- 26
2019-08-14 18:00:00 25.6 19 Oeste 36 Noroeste 0 -- -- 27
2019-08-14 17:00:00 25.9 15 Oeste 34 Oeste 0 -- -- 26
2019-08-14 16:00:00 24.9 16 Oeste 33 Oeste 0 -- -- 30
2019-08-14 15:00:00 25.4 12 Noroeste 30 Noroeste 0 -- -- 27
2019-08-14 14:00:00 24.8 15 Noroeste 32 Norte 0 -- -- 31
2019-08-14 13:00:00 23.9 11 Noroeste 29 Noroeste 0 -- -- 31
2019-08-14 12:00:00 22.8 14 Noroeste 30 Sudoeste 0 -- -- 35
2019-08-14 11:00:00 20.8 9 Sudoeste 24 Oeste 0 -- -- 38
2019-08-14 10:00:00 19 10 Sur 16 Sudeste 0 -- -- 57
2019-08-14 09:00:00 17.3 9 Sudoeste 15 Sudoeste 0 -- -- 66
2019-08-14 08:00:00 14.3 14 Sudoeste 18 Sudoeste 0 -- -- 74
2019-08-14 07:00:00 12.6 15 Sudoeste 18 Sudoeste 0 -- -- 79
2019-08-14 06:00:00 12.7 17 Sudoeste 19 Sudoeste 0 -- -- 79
2019-08-14 05:00:00 13 14 Sudoeste 19 Sudoeste 0 -- -- 75
2019-08-14 04:00:00 12.4 16 Sudoeste 20 Sudoeste 0 -- -- 71
2019-08-14 03:00:00 12 17 Sudoeste 19 Sudoeste 0 -- -- 72
2019-08-14 02:00:00 11.6 13 Sudoeste 17 Sudoeste 0 -- -- 69
2019-08-14 01:00:00 11.6 5 Oeste 15 Oeste 0 -- -- 68
2019-08-14 00:00:00 11.5 9 Oeste 17 Noroeste 0 -- -- 71
2019-08-13 23:00:00 11.9 7 Oeste 10 Sudoeste 0 -- -- 70
2019-08-13 22:00:00 12.7 5 Noroeste 12 Noroeste 0 -- -- 70
2019-08-13 21:00:00 15.2 6 Noroeste 15 Noroeste 0 -- -- 63
2019-08-13 20:00:00 17.3 5 Noroeste 12 Norte 0 -- -- 56
2019-08-13 19:00:00 17.2 3 Sudeste 11 Este 0 -- -- 74
2019-08-13 18:00:00 17.3 8 Nordeste 17 Noroeste 0 -- -- 67
2019-08-13 17:00:00 16.3 12 Noroeste 21 Noroeste 2.4 -- -- 74
2019-08-13 16:00:00 16.4 11 Norte 46 Noroeste 1 -- -- 79
2019-08-13 15:00:00 18.3 14 Sur 35 Sur 0 -- -- 62
2019-08-13 14:00:00 18.5 20 Sur 31 Sudeste 0 -- -- 63
2019-08-13 13:00:00 17.5 15 Sur 26 Sudeste 0 -- -- 67
2019-08-13 12:00:00 16.6 16 Sudeste 24 Sudeste 0 -- -- 70
2019-08-13 11:00:00 14 9 Sur 19 Sudeste 0 -- -- 76
2019-08-13 10:00:00 14.3 10 Sudeste 15 Sudeste 0 -- -- 72
2019-08-13 09:00:00 13.5 10 Sur 16 Sur 0 -- -- 64
2019-08-13 08:00:00 11.4 3 Sudeste 5 Sudeste 0 -- -- 68
2019-08-13 07:00:00 11 2 Nordeste 6 Sudoeste 0 -- -- 69
2019-08-13 06:00:00 10.1 3 Nordeste 8 Sudoeste 0 -- -- 72
2019-08-13 05:00:00 10 4 Norte 13 Norte 0 -- -- 72
2019-08-13 04:00:00 11 5 Norte 10 Sudoeste 0 -- -- 68
2019-08-13 03:00:00 11.1 3 Oeste 14 Noroeste 0 -- -- 67
2019-08-13 02:00:00 10.8 9 Noroeste 25 Oeste 0 -- -- 68
2019-08-13 01:00:00 10.7 21 Oeste 34 Oeste 0 -- -- 69
2019-08-13 00:00:00 11.5 27 Oeste 40 Oeste 0 -- -- 65
2019-08-12 23:00:00 11.9 13 Noroeste 26 Noroeste 0 -- -- 61
2019-08-12 22:00:00 13.1 13 Noroeste 21 Norte 0 -- -- 57
2019-08-12 21:00:00 14.8 12 Norte 24 Norte 0 -- -- 52
2019-08-12 20:00:00 17.2 15 Norte 23 Norte 0 -- -- 48
2019-08-12 19:00:00 17.6 13 Este 23 Nordeste 0 -- -- 64
2019-08-12 18:00:00 18.8 12 Nordeste 25 Este 0 -- -- 58
2019-08-12 17:00:00 20.2 12 Norte 29 Este 0 -- -- 43
2019-08-12 16:00:00 20.8 13 Este 27 Este 0 -- -- 44
2019-08-12 15:00:00 21.5 11 Nordeste 26 Este 0 -- -- 44
2019-08-12 14:00:00 20.9 12 Este 25 Este 0 -- -- 47
2019-08-12 13:00:00 19.4 7 Noroeste 22 Norte 0 -- -- 53
2019-08-12 12:00:00 17.9 13 Norte 27 Norte 0 -- -- 60
2019-08-12 11:00:00 16.1 20 Noroeste 32 Noroeste 0 -- -- 67
2019-08-12 10:00:00 14 21 Noroeste 33 Noroeste 0 -- -- 74
2019-08-12 09:00:00 12.3 24 Noroeste 35 Noroeste 0 -- -- 82
2019-08-12 08:00:00 12.3 14 Noroeste 23 Noroeste 0 -- -- 84
2019-08-12 07:00:00 12.2 0 Calma 12 Norte 0 -- -- 93
2019-08-12 06:00:00 13 6 Sudoeste 10 Sudoeste 0 -- -- 94
2019-08-12 05:00:00 13.3 5 Noroeste 16 Sudoeste 0 -- -- 82
2019-08-12 04:00:00 13.7 3 Oeste 8 Norte 0 -- -- 79
2019-08-12 03:00:00 13.8 4 Norte 16 Norte 0 -- -- 78
2019-08-12 02:00:00 14.6 8 Norte 11 Norte 0 -- -- 79
2019-08-12 01:00:00 16 3 Noroeste 10 Sudoeste 0 -- -- 83
2019-08-12 00:00:00 16.1 9 Sudoeste 12 Sudoeste 0 -- -- 87
2019-08-11 23:00:00 17.6 9 Sudoeste 14 Sur 0 -- -- 91
2019-08-11 22:00:00 18.9 7 Sur 16 Sudoeste 0 -- -- 87
2019-08-11 21:00:00 19.9 11 Sur 20 Sur 0 -- -- 84
2019-08-11 20:00:00 21.2 14 Sur 25 Sudeste 0 -- -- 78
2019-08-11 19:00:00 23.3 15 Sudeste 26 Sudeste 0 -- -- 67
2019-08-11 18:00:00 24.6 16 Sur 30 Sudeste 0 -- -- 47
2019-08-11 17:00:00 27.3 19 Sur 41 Sur 0 -- -- 36
2019-08-11 16:00:00 26.7 21 Sur 44 Sur 0 -- -- 31
2019-08-11 15:00:00 26.2 21 Sur 34 Sudeste 0 -- -- 34
2019-08-11 14:00:00 25.2 16 Sudoeste 33 Sur 0 -- -- 36
2019-08-11 13:00:00 24.1 16 Sur 39 Sudoeste 0 -- -- 48
2019-08-11 12:00:00 24.6 26 Sudoeste 46 Sur 0 -- -- 39
2019-08-11 11:00:00 23.8 17 Sudoeste 35 Sudoeste 0 -- -- 47
2019-08-11 10:00:00 22.5 15 Sudoeste 28 Sur 0 -- -- 51
2019-08-11 09:00:00 21 12 Sudoeste 19 Sur 0 -- -- 57
2019-08-11 08:00:00 18.1 11 Sudoeste 19 Sudoeste 0 -- -- 73
2019-08-11 07:00:00 16.9 13 Sudoeste 21 Sur 0 -- -- 81
2019-08-11 06:00:00 16.7 12 Sudoeste 22 Sudoeste 0 -- -- 84
2019-08-11 05:00:00 17.4 12 Sur 23 Sur 0 -- -- 83
2019-08-11 04:00:00 17.8 14 Sur 22 Sur 0 -- -- 76
2019-08-11 03:00:00 17.8 14 Sur 22 Sur 0 -- -- 73
2019-08-11 02:00:00 16.8 10 Sur 16 Sur 0 -- -- 81
2019-08-11 01:00:00 16.6 9 Sudoeste 14 Sur 0 -- -- 91
2019-08-11 00:00:00 16.8 8 Sur 13 Sur 0 -- -- 96
2019-08-10 23:00:00 18.1 5 Sudoeste 13 Sur 0 -- -- 87
2019-08-10 22:00:00 18.5 8 Sur 12 Sudeste 0 -- -- 90
2019-08-10 21:00:00 19.9 8 Sudeste 19 Sudeste 0 -- -- 84
2019-08-10 20:00:00 22 14 Sudeste 24 Sur 0 -- -- 75
2019-08-10 19:00:00 23.2 16 Sur 30 Sudeste 0 -- -- 69
2019-08-10 18:00:00 23.6 20 Sudeste 36 Sur 0 -- -- 68
2019-08-10 17:00:00 26.1 21 Sur 36 Sudeste 0 -- -- 57
2019-08-10 16:00:00 25.6 19 Sudeste 34 Sudeste 0 -- -- 57
2019-08-10 15:00:00 26.1 19 Sudeste 35 Sudeste 0 -- -- 53
2019-08-10 14:00:00 25.7 15 Sudeste 38 Este 0 -- -- 56
2019-08-10 13:00:00 27 18 Sur 38 Sudeste 0 -- -- 40
2019-08-10 12:00:00 26 18 Sudeste 32 Sur 0 -- -- 42
2019-08-10 11:00:00 25.3 17 Sur 32 Sudoeste 0 -- -- 41
2019-08-10 10:00:00 24 18 Sudoeste 34 Sudoeste 0 -- -- 47
2019-08-10 09:00:00 22.6 22 Sudoeste 37 Sudoeste 0 -- -- 52
2019-08-10 08:00:00 20.6 13 Sudoeste 26 Oeste 0 -- -- 59
2019-08-10 07:00:00 18.4 21 Oeste 31 Oeste 0 -- -- 65
2019-08-10 06:00:00 18.9 23 Oeste 29 Oeste 0 -- -- 61
2019-08-10 05:00:00 19 22 Oeste 31 Oeste 0 -- -- 60
2019-08-10 04:00:00 19 20 Oeste 27 Oeste 0 -- -- 60
2019-08-10 03:00:00 18 8 Sudoeste 17 Oeste 0 -- -- 62
2019-08-10 02:00:00 18.8 11 Oeste 13 Oeste 0 -- -- 59
2019-08-10 01:00:00 19.5 7 Oeste 19 Oeste 0 -- -- 57
2019-08-10 00:00:00 20.4 12 Oeste 20 Oeste 0 -- -- 53
2019-08-09 23:00:00 21.2 10 Oeste 18 Sudoeste 0 -- -- 50
2019-08-09 22:00:00 23.2 11 Sudoeste 23 Oeste 0 -- -- 43
2019-08-09 21:00:00 25.6 11 Sudoeste 26 Oeste 0 -- -- 38
2019-08-09 20:00:00 28.7 12 Sudoeste 30 Sur 0 -- -- 31
2019-08-09 19:00:00 30 16 Sur 32 Sudoeste 0 -- -- 28
2019-08-09 18:00:00 30.6 21 Sur 37 Sur 0 -- -- 27
2019-08-09 17:00:00 30.9 18 Sudoeste 32 Sudoeste 0 -- -- 27
2019-08-09 16:00:00 31.2 14 Sudoeste 36 Sur 0 -- -- 29
2019-08-09 15:00:00 31.1 19 Sur 40 Oeste 0 -- -- 29
2019-08-09 14:00:00 30.1 15 Sudoeste 32 Sudeste 0 -- -- 29
2019-08-09 13:00:00 29.9 18 Sur 30 Sur 0 -- -- 21
2019-08-09 12:00:00 28.2 13 Sudoeste 27 Sudoeste 0 -- -- 21
2019-08-09 11:00:00 26.8 15 Sudoeste 29 Sudoeste 0 -- -- 26
2019-08-09 10:00:00 25.5 12 Sudoeste 32 Sudoeste 0 -- -- 31
2019-08-09 09:00:00 24.1 3 Este 13 Sudoeste 0 -- -- 43
2019-08-09 08:00:00 20.1 9 Oeste 17 Sudoeste 0 -- -- 52
2019-08-09 07:00:00 17.4 15 Sudoeste 18 Sudoeste 0 -- -- 58
2019-08-09 06:00:00 18 12 Sudoeste 15 Sudoeste 0 -- -- 56
2019-08-09 05:00:00 17.8 14 Sudoeste 17 Sudoeste 0 -- -- 58
2019-08-09 04:00:00 18.4 11 Sudoeste 15 Sudoeste 0 -- -- 57
2019-08-09 03:00:00 20.1 10 Sudoeste 23 Oeste 0 -- -- 52
2019-08-09 02:00:00 19.4 10 Sudoeste 15 Sudoeste 0 -- -- 54
2019-08-09 01:00:00 20 11 Oeste 20 Oeste 0 -- -- 53
2019-08-09 00:00:00 20.7 12 Oeste 21 Oeste 0 -- -- 53
2019-08-08 23:00:00 20.7 14 Sudoeste 18 Sudoeste 0 -- -- 57
2019-08-08 22:00:00 21.4 11 Sudoeste 24 Sudoeste 0 -- -- 57
2019-08-08 21:00:00 22.2 15 Sur 26 Sur 0 -- -- 56
2019-08-08 20:00:00 24.4 20 Sur 33 Sur 0 -- -- 49
2019-08-08 19:00:00 26.2 18 Sur 31 Sur 0 -- -- 45
2019-08-08 18:00:00 27.3 17 Sur 40 Sudeste 0 -- -- 42
2019-08-08 17:00:00 28.1 18 Sur 34 Sur 0 -- -- 40
2019-08-08 16:00:00 28 15 Este 34 Sudoeste 0 -- -- 44
2019-08-08 15:00:00 28.8 16 Sudoeste 36 Sudoeste 0 -- -- 34
2019-08-08 14:00:00 28.4 12 Sudoeste 31 Sur 0 -- -- 34
2019-08-08 13:00:00 27.4 10 Sudeste 31 Sur 0 -- -- 37
2019-08-08 12:00:00 26.4 10 Este 23 Oeste 0 -- -- 39
2019-08-08 11:00:00 24.2 12 Oeste 25 Oeste 0 -- -- 43
2019-08-08 10:00:00 22.5 9 Noroeste 18 Oeste 0 -- -- 46
2019-08-08 09:00:00 20.2 4 Este 16 Noroeste 0 -- -- 49
2019-08-08 08:00:00 18.4 3 Este 40 Noroeste 0 -- -- 57
2019-08-08 07:00:00 17.1 30 Noroeste 44 Noroeste 0 -- -- 61
2019-08-08 06:00:00 16.3 10 Oeste 15 Noroeste 0 -- -- 57
2019-08-08 05:00:00 16.7 6 Oeste 22 Oeste 0 -- -- 52
2019-08-08 04:00:00 14.9 6 Oeste 15 Oeste 0 -- -- 60
2019-08-08 03:00:00 16.5 10 Oeste 13 Oeste 0 -- -- 52
2019-08-08 02:00:00 18.8 10 Oeste 26 Sudoeste 0 -- -- 47
2019-08-08 01:00:00 20.1 8 Sudoeste 19 Sur 0 -- -- 47
2019-08-08 00:00:00 20.4 4 Sur 11 Oeste 0 -- -- 42
2019-08-07 23:00:00 21.3 9 Sudoeste 22 Sudoeste 0 -- -- 39
2019-08-07 22:00:00 20.4 5 Sudoeste 19 Sudeste 0 -- -- 70
2019-08-07 21:00:00 21.4 4 Sudeste 13 Este 0 -- -- 78
2019-08-07 20:00:00 24.5 8 Sur 31 Sudoeste 0 -- -- 44
2019-08-07 19:00:00 25.5 12 Sudoeste 21 Sudoeste 0 -- -- 28
2019-08-07 18:00:00 25.5 15 Sudoeste 30 Oeste 0 -- -- 26
2019-08-07 17:00:00 26.8 15 Sudoeste 27 Oeste 0 -- -- 24
2019-08-07 16:00:00 27.3 13 Sudoeste 30 Sudoeste 0 -- -- 24
2019-08-07 15:00:00 26.1 13 Sudoeste 28 Oeste 0 -- -- 24
2019-08-07 14:00:00 26.6 13 Sudoeste 30 Sudoeste 0 -- -- 22
2019-08-07 13:00:00 25.1 12 Oeste 33 Sudoeste 0 -- -- 28
2019-08-07 12:00:00 23.8 19 Oeste 39 Sudoeste 0 -- -- 29
2019-08-07 11:00:00 23.3 14 Oeste 42 Sudoeste 0 -- -- 34
2019-08-07 10:00:00 22.3 17 Oeste 33 Oeste 0 -- -- 35
2019-08-07 09:00:00 21.2 20 Oeste 37 Oeste 0 -- -- 36
2019-08-07 08:00:00 21 26 Oeste 46 Oeste 0 -- -- 33
2019-08-07 07:00:00 19.1 8 Sudoeste 15 Oeste 0 -- -- 34
2019-08-07 06:00:00 17.2 9 Oeste 19 Oeste 0 -- -- 40
2019-08-07 05:00:00 17.4 14 Oeste 19 Oeste 0 -- -- 40
2019-08-07 04:00:00 18.4 16 Oeste 19 Sudoeste 0 -- -- 46
2019-08-07 03:00:00 18.6 16 Sudoeste 19 Sudoeste 0 -- -- 53
2019-08-07 02:00:00 19.1 12 Sudoeste 24 Sur 0 -- -- 54
2019-08-07 01:00:00 20.5 14 Sur 23 Sudoeste 0 -- -- 50
2019-08-07 00:00:00 20.4 15 Sudoeste 23 Sudoeste 0 -- -- 51
2019-08-06 23:00:00 20.4 14 Sur 21 Sur 0 -- -- 63
2019-08-06 22:00:00 19.9 10 Sudoeste 14 Sudoeste 0 -- -- 78
2019-08-06 21:00:00 22.3 10 Sur 23 Sur 0 -- -- 71
2019-08-06 20:00:00 24.5 17 Sur 28 Sur 0 -- -- 61
2019-08-06 19:00:00 26.4 19 Sudeste 32 Sudeste 0 -- -- 53
2019-08-06 18:00:00 26.7 24 Sudeste 37 Oeste 0 -- -- 56
2019-08-06 17:00:00 27.8 21 Este 37 Sudeste 0 -- -- 47
2019-08-06 16:00:00 28.7 15 Sur 27 Este 0 -- -- 48
2019-08-06 15:00:00 28.8 14 Nordeste 32 Sur 0 -- -- 50
2019-08-06 14:00:00 29.2 14 Sudoeste 32 Oeste 0 -- -- 23
2019-08-06 13:00:00 28.7 17 Sudoeste 31 Sudoeste 0 -- -- 22
2019-08-06 12:00:00 28.1 9 Sudoeste 33 Oeste 0 -- -- 25
2019-08-06 11:00:00 27.2 17 Oeste 32 Oeste 0 -- -- 28
2019-08-06 10:00:00 26.3 18 Oeste 33 Oeste 0 -- -- 29
2019-08-06 09:00:00 24.2 19 Oeste 31 Oeste 0 -- -- 37
2019-08-06 08:00:00 20.9 12 Oeste 18 Oeste 0 -- -- 68
2019-08-06 07:00:00 18.9 12 Sudoeste 16 Sudoeste 0 -- -- 76
2019-08-06 06:00:00 19.9 14 Sudoeste 17 Sudoeste 0 -- -- 75
2019-08-06 05:00:00 19.5 14 Sudoeste 18 Sudoeste 0 -- -- 79
2019-08-06 04:00:00 18.8 13 Sudoeste 17 Sudoeste 0 -- -- 77
2019-08-06 03:00:00 19 14 Sudoeste 17 Sudoeste 0 -- -- 74
2019-08-06 02:00:00 19.4 15 Sudoeste 19 Sudoeste 0 -- -- 65
2019-08-06 01:00:00 19.5 16 Sudoeste 19 Sudoeste 0 -- -- 56
2019-08-06 00:00:00 19.7 14 Sudoeste 19 Sudoeste 0 -- -- 55
2019-08-05 23:00:00 20.1 12 Sudoeste 21 Sudoeste 0 -- -- 55
2019-08-05 22:00:00 20.4 14 Sudoeste 19 Sudoeste 0 -- -- 63
2019-08-05 21:00:00 21.6 13 Sur 18 Sur 0 -- -- 68
2019-08-05 20:00:00 24.4 13 Sur 24 Sur 0 -- -- 57
2019-08-05 19:00:00 26.1 18 Sur 28 Sudeste 0 -- -- 54
2019-08-05 18:00:00 27.3 21 Sudeste 33 Sudeste 0 -- -- 47
2019-08-05 17:00:00 27.7 18 Sur 34 Sur 0 -- -- 46
2019-08-05 16:00:00 27.6 19 Sudeste 33 Sudeste 0 -- -- 43
2019-08-05 15:00:00 28.6 19 Sur 34 Sur 0 -- -- 40
2019-08-05 14:00:00 27.6 17 Sudeste 30 Sudeste 0 -- -- 45
2019-08-05 13:00:00 26.8 17 Nordeste 32 Nordeste 0 -- -- 46
2019-08-05 12:00:00 27.4 15 Este 25 Este 0 -- -- 45
2019-08-05 11:00:00 27 17 Sur 25 Sur 0 -- -- 36
2019-08-05 10:00:00 25.7 12 Sur 21 Sudeste 0 -- -- 45
2019-08-05 09:00:00 23.9 7 Sudeste 16 Sur 0 -- -- 51
2019-08-05 08:00:00 21 10 Sudoeste 15 Sudoeste 0 -- -- 59
2019-08-05 07:00:00 19.4 13 Sudoeste 22 Oeste 0 -- -- 64
2019-08-05 06:00:00 19.2 18 Oeste 21 Oeste 0 -- -- 69
2019-08-05 05:00:00 18.7 15 Sudoeste 20 Sudoeste 0 -- -- 71
2019-08-05 04:00:00 18.8 18 Sudoeste 22 Sudoeste 0 -- -- 68
2019-08-05 03:00:00 19 17 Sudoeste 21 Sudoeste 0 -- -- 63
2019-08-05 02:00:00 19.4 16 Sudoeste 20 Sudoeste 0 -- -- 53
2019-08-05 01:00:00 19.4 16 Sudoeste 22 Sudoeste 0 -- -- 51
2019-08-05 00:00:00 19.4 18 Sudoeste 22 Sudoeste 0 -- -- 53
2019-08-04 23:00:00 19.7 15 Sudoeste 24 Sudoeste 0 -- -- 59
2019-08-04 22:00:00 20.9 15 Sudoeste 22 Sur 0 -- -- 62
2019-08-04 21:00:00 21.9 15 Sur 21 Sur 0 -- -- 69
2019-08-04 20:00:00 24.3 12 Sur 28 Sur 0 -- -- 58
2019-08-04 19:00:00 25.5 17 Sur 35 Sur 0 -- -- 55
2019-08-04 18:00:00 27.3 23 Sur 39 Sur 0 -- -- 48
2019-08-04 17:00:00 27.3 23 Sudeste 35 Sudeste 0 -- -- 47
2019-08-04 16:00:00 28.5 21 Sur 39 Sudeste 0 -- -- 42
2019-08-04 15:00:00 28.8 23 Sur 36 Sudeste 0 -- -- 40
2019-08-04 14:00:00 28.2 17 Nordeste 41 Sur 0 -- -- 43
2019-08-04 13:00:00 28.4 22 Sudeste 40 Sudeste 0 -- -- 33
2019-08-04 12:00:00 28.3 12 Sudoeste 36 Sudeste 0 -- -- 29
2019-08-04 11:00:00 27.6 18 Sur 29 Sur 0 -- -- 35
2019-08-04 10:00:00 26.6 13 Sur 21 Sur 0 -- -- 37
2019-08-04 09:00:00 24.7 11 Sudoeste 17 Sudoeste 0 -- -- 45
2019-08-04 08:00:00 21.6 13 Sudoeste 17 Sudoeste 0 -- -- 54
2019-08-04 07:00:00 18.9 11 Sudoeste 23 Oeste 0 -- -- 61
2019-08-04 06:00:00 18.8 14 Oeste 26 Oeste 0 -- -- 63
2019-08-04 05:00:00 18.7 14 Sudoeste 20 Sudoeste 0 -- -- 65
2019-08-04 04:00:00 18.2 18 Sudoeste 25 Sudoeste 0 -- -- 66
2019-08-04 03:00:00 18.4 18 Sudoeste 24 Sudoeste 0 -- -- 67
2019-08-04 02:00:00 18.2 15 Sudoeste 23 Sudoeste 0 -- -- 63
2019-08-04 01:00:00 18.7 18 Sudoeste 22 Sudoeste 0 -- -- 62
2019-08-04 00:00:00 19 17 Sudoeste 23 Sudoeste 0 -- -- 62
2019-08-03 23:00:00 20.7 16 Sudoeste 26 Sudoeste 0 -- -- 56
2019-08-03 22:00:00 20.9 17 Sudoeste 26 Sur 0 -- -- 52
2019-08-03 21:00:00 21 14 Sudoeste 23 Sur 0 -- -- 63
2019-08-03 20:00:00 23.2 16 Sur 28 Sur 0 -- -- 59
2019-08-03 19:00:00 25.1 20 Sur 31 Sudeste 0 -- -- 55
2019-08-03 18:00:00 26.3 16 Sudeste 34 Sudeste 0 -- -- 51
2019-08-03 17:00:00 26.7 21 Sudeste 38 Sudeste 0 -- -- 51
2019-08-03 16:00:00 26.3 18 Sudeste 36 Sur 0 -- -- 52
2019-08-03 15:00:00 25.9 22 Sudeste 35 Este 0 -- -- 48
2019-08-03 14:00:00 26.4 19 Sur 35 Sudeste 0 -- -- 42
2019-08-03 13:00:00 26 22 Sur 32 Sur 0 -- -- 42
2019-08-03 12:00:00 25.2 17 Sur 27 Sudeste 0 -- -- 43
2019-08-03 11:00:00 24.4 16 Sudeste 26 Sur 0 -- -- 45
2019-08-03 10:00:00 23.9 17 Sudeste 24 Sur 0 -- -- 41
2019-08-03 09:00:00 23.1 9 Sudoeste 19 Sudoeste 0 -- -- 42
2019-08-03 08:00:00 19.3 14 Sudoeste 18 Sudoeste 0 -- -- 47
2019-08-03 07:00:00 16.9 14 Sudoeste 16 Sudoeste 0 -- -- 51
2019-08-03 06:00:00 16.8 11 Sudoeste 14 Sudoeste 0 -- -- 52
2019-08-03 05:00:00 17.2 12 Sudoeste 13 Sudoeste 0 -- -- 57
2019-08-03 04:00:00 16.8 9 Sudoeste 14 Sudoeste 0 -- -- 61
2019-08-03 03:00:00 17.1 10 Sudoeste 14 Sudoeste 0 -- -- 63
2019-08-03 02:00:00 17.4 9 Sudoeste 13 Sur 0 -- -- 63
2019-08-03 01:00:00 17.2 6 Sur 11 Sur 0 -- -- 66
2019-08-03 00:00:00 16.2 4 Sudoeste 10 Sudoeste 0 -- -- 72
2019-08-02 23:00:00 16.7 7 Sudoeste 9 Sudoeste 0 -- -- 69
2019-08-02 22:00:00 17.6 4 Oeste 6 Sudoeste 0 -- -- 68
2019-08-02 21:00:00 20 4 Sudeste 11 Este 0 -- -- 61
2019-08-02 20:00:00 22.1 8 Este 21 Este 0 -- -- 54
2019-08-02 19:00:00 23.4 13 Este 25 Nordeste 0 -- -- 51
2019-08-02 18:00:00 24.4 15 Este 32 Este 0 -- -- 48
2019-08-02 17:00:00 25.2 18 Este 31 Este 0 -- -- 45
2019-08-02 16:00:00 25.9 15 Este 29 Este 0 -- -- 43
2019-08-02 15:00:00 25.1 17 Este 32 Este 0 -- -- 47
2019-08-02 14:00:00 24.5 13 Este 30 Nordeste 0 -- -- 54
2019-08-02 13:00:00 26.8 12 Noroeste 38 Sudoeste 0 -- -- 31
2019-08-02 12:00:00 25.9 20 Sudoeste 37 Sudoeste 0 -- -- 31
2019-08-02 11:00:00 25.1 19 Sudoeste 33 Sudoeste 0 -- -- 34
2019-08-02 10:00:00 22.2 6 Sudeste 12 Este 0 -- -- 61
2019-08-02 09:00:00 20.6 3 Sudeste 5 Este 0 -- -- 65
2019-08-02 08:00:00 17.2 2 Sur 9 Sudoeste 0 -- -- 75
2019-08-02 07:00:00 14.6 7 Sudoeste 13 Sudoeste 0 -- -- 80
2019-08-02 06:00:00 15.2 6 Sudoeste 10 Sudoeste 0 -- -- 79
2019-08-02 05:00:00 15.1 6 Sudoeste 11 Sudoeste 0 -- -- 80
2019-08-02 04:00:00 16.3 3 Sudoeste 13 Oeste 0 -- -- 78
2019-08-02 03:00:00 16.8 6 Sudoeste 13 Sudoeste 0 -- -- 78
2019-08-02 02:00:00 18 4 Sudeste 27 Noroeste 0 -- -- 73
2019-08-02 01:00:00 18.3 18 Oeste 21 Oeste 0 -- -- 62
2019-08-02 00:00:00 17.5 10 Sudoeste 21 Oeste 0 -- -- 79
2019-08-01 23:00:00 17.2 8 Sudoeste 11 Sudoeste 0 -- -- 85
2019-08-01 22:00:00 17.8 3 Este 13 Sur 0 -- -- 86
2019-08-01 21:00:00 20.6 8 Sur 18 Sudeste 0 -- -- 75
2019-08-01 20:00:00 23.6 13 Sur 22 Sudeste 0 -- -- 62
2019-08-01 19:00:00 24.6 13 Sur 26 Sudeste 0 -- -- 56
2019-08-01 18:00:00 23.8 14 Este 25 Este 0 -- -- 67
2019-08-01 17:00:00 23.7 14 Este 27 Este 0 -- -- 66
2019-08-01 16:00:00 24.3 18 Este 33 Este 0 -- -- 61
2019-08-01 15:00:00 25.5 19 Este 32 Este 0 -- -- 51
2019-08-01 14:00:00 26 19 Sudeste 31 Sur 0 -- -- 41
2019-08-01 13:00:00 24.4 18 Sudeste 31 Sudeste 0 -- -- 44
2019-08-01 12:00:00 22.1 15 Sudeste 29 Sudeste 0 -- -- 47
2019-08-01 11:00:00 20.9 19 Sur 28 Sur 0 -- -- 50
2019-08-01 10:00:00 19.5 15 Sur 26 Sur 0 -- -- 53
2019-08-01 09:00:00 18 18 Sur 27 Sur 0 -- -- 55
2019-08-01 08:00:00 16.1 13 Sur 22 Sur 0 -- -- 60
2019-08-01 07:00:00 14 10 Sur 21 Sur 0 -- -- 63
2019-08-01 06:00:00 14.8 10 Sur 19 Sur 0 -- -- 56
2019-08-01 05:00:00 13.6 4 Sur 22 Sur 0 -- -- 66
2019-08-01 04:00:00 16.2 15 Sur 24 Sudeste 0 -- -- 45
2019-08-01 03:00:00 14.9 8 Sudoeste 15 Sudoeste 0 -- -- 50
2019-08-01 02:00:00 14.3 11 Sudoeste 15 Sudoeste 0 -- -- 71
2019-08-01 01:00:00 15.4 7 Sur 17 Sur 0 -- -- 66
2019-08-01 00:00:00 14 7 Sudoeste 10 Sudoeste 0 -- -- 84
2019-07-31 23:00:00 14.6 6 Oeste 10 Sudeste 0 -- -- 85
2019-07-31 22:00:00 15.3 2 Sudoeste 15 Sur 0 -- -- 88
2019-07-31 21:00:00 16.5 8 Sudoeste 18 Oeste 0 -- -- 84
2019-07-31 20:00:00 16.6 9 Sur 22 Sudeste 0 -- -- 87
2019-07-31 19:00:00 17.4 12 Sur 24 Sudeste 0 -- -- 81
2019-07-31 18:00:00 18.6 14 Sur 23 Sur 0 -- -- 75
2019-07-31 17:00:00 18.8 13 Sudeste 29 Sudeste 0 -- -- 73
2019-07-31 16:00:00 19.2 22 Sudeste 32 Sur 0 -- -- 71
2019-07-31 15:00:00 19.7 20 Sudeste 33 Este 0 -- -- 66
2019-07-31 14:00:00 19.5 22 Sudeste 36 Sudeste 0 -- -- 66
2019-07-31 13:00:00 20.5 19 Este 29 Este 0 -- -- 58
2019-07-31 12:00:00 19.5 19 Este 29 Este 0 -- -- 67
2019-07-31 11:00:00 17.9 17 Este 26 Este 0 -- -- 73
2019-07-31 10:00:00 17.5 8 Este 15 Este 0 -- -- 76
2019-07-31 09:00:00 16.3 7 Este 12 Este 0 -- -- 79
2019-07-31 08:00:00 14.6 4 Sudeste 11 Sudeste 0 -- -- 85
2019-07-31 07:00:00 13.3 6 Sudeste 12 Sudeste 0 -- -- 87
2019-07-31 06:00:00 13 5 Sur 10 Sur 0 -- -- 84
2019-07-31 05:00:00 11.1 4 Sur 5 Sur 0 -- -- 81
2019-07-31 04:00:00 11 3 Sudoeste 9 Sudoeste 0 -- -- 81
2019-07-31 03:00:00 11.1 3 Sudoeste 8 Sudoeste 0 -- -- 82
2019-07-31 02:00:00 12 5 Sudoeste 10 Oeste 0 -- -- 73
2019-07-31 01:00:00 12.4 4 Oeste 16 Noroeste 0 -- -- 71
2019-07-31 00:00:00 13.4 10 Noroeste 17 Norte 0 -- -- 66
2019-07-30 23:00:00 14.8 7 Noroeste 16 Nordeste 0 -- -- 66
2019-07-30 22:00:00 16.2 6 Nordeste 13 Este 0 -- -- 86
2019-07-30 21:00:00 17.2 8 Este 17 Este 0 -- -- 83
2019-07-30 20:00:00 17.9 11 Este 22 Nordeste 0 -- -- 80
2019-07-30 19:00:00 19.4 13 Este 24 Este 0 -- -- 74
2019-07-30 18:00:00 19.4 15 Este 36 Este 0 -- -- 73
2019-07-30 17:00:00 22.3 22 Este 30 Este 0 -- -- 61
2019-07-30 16:00:00 22.1 17 Este 30 Este 0 -- -- 56
2019-07-30 15:00:00 23.6 18 Este 32 Nordeste 0 -- -- 49
2019-07-30 14:00:00 23.3 18 Este 28 Este 0 -- -- 50
2019-07-30 13:00:00 22.6 16 Este 27 Este 0 -- -- 53
2019-07-30 12:00:00 21.9 14 Este 25 Este 0 -- -- 55
2019-07-30 11:00:00 20.6 8 Este 17 Este 0 -- -- 57
2019-07-30 10:00:00 20.1 8 Este 17 Este 0 -- -- 51
2019-07-30 09:00:00 18.3 6 Nordeste 13 Norte 0 -- -- 54
2019-07-30 08:00:00 17.7 0 Calma 13 Sudoeste 0 -- -- 48
2019-07-30 07:00:00 15.4 12 Sudoeste 15 Sudoeste 0 -- -- 46
2019-07-30 06:00:00 15.2 14 Sudoeste 17 Sudoeste 0 -- -- 48
2019-07-30 05:00:00 14.6 3 Sudoeste 13 Oeste 0 -- -- 54
2019-07-30 04:00:00 14.8 9 Oeste 15 Sudoeste 0 -- -- 61
2019-07-30 03:00:00 15.8 13 Sudoeste 18 Sudoeste 0 -- -- 67
2019-07-30 02:00:00 16.3 15 Sudoeste 18 Sudoeste 0 -- -- 70
2019-07-30 01:00:00 16.4 16 Sudoeste 20 Sudoeste 0 -- -- 69
2019-07-30 00:00:00 16.6 16 Sudoeste 21 Sudoeste 0 -- -- 73
2019-07-29 23:00:00 16.6 12 Sudoeste 17 Sudoeste 0 -- -- 81
2019-07-29 22:00:00 17.9 12 Sudoeste 22 Sur 0 -- -- 79
2019-07-29 21:00:00 19.6 13 Sur 26 Sur 0 -- -- 70
2019-07-29 20:00:00 22.2 17 Sur 31 Sur 0 -- -- 59
2019-07-29 19:00:00 23.9 19 Sur 35 Sur 0 -- -- 56
2019-07-29 18:00:00 23.7 21 Sur 33 Este 0 -- -- 55
2019-07-29 17:00:00 23.8 14 Sudeste 30 Sudeste 0 -- -- 50
2019-07-29 16:00:00 24.9 14 Sudeste 28 Sur 0 -- -- 43
2019-07-29 15:00:00 25.1 15 Sur 41 Sudoeste 0 -- -- 38
2019-07-29 14:00:00 25.4 12 Sudoeste 35 Sudoeste 0 -- -- 36
2019-07-29 13:00:00 24.1 15 Sudoeste 29 Sudoeste 0 -- -- 38
2019-07-29 12:00:00 23.4 12 Sudoeste 35 Sudoeste 0 -- -- 40
2019-07-29 11:00:00 22.4 10 Sudoeste 24 Sudoeste 0 -- -- 41
2019-07-29 10:00:00 21.3 13 Sudoeste 22 Sur 0 -- -- 38
2019-07-29 09:00:00 19.8 7 Sudoeste 18 Sudoeste 0 -- -- 41
2019-07-29 08:00:00 16.1 14 Oeste 22 Oeste 0 -- -- 52
2019-07-29 07:00:00 12.7 18 Oeste 22 Oeste 0 -- -- 58
2019-07-29 06:00:00 12.4 14 Oeste 19 Oeste 0 -- -- 66
2019-07-29 05:00:00 13.1 15 Sudoeste 20 Sudoeste 0 -- -- 74
2019-07-29 04:00:00 12.3 17 Sudoeste 20 Oeste 0 -- -- 76
2019-07-29 03:00:00 12.5 6 Oeste 9 Oeste 0 -- -- 70
2019-07-29 02:00:00 12.6 3 Sudoeste 9 Sur 0 -- -- 79
2019-07-29 01:00:00 12 3 Sudoeste 9 Sudoeste 0 -- -- 80
2019-07-29 00:00:00 13.1 6 Oeste 9 Sudoeste 0 -- -- 77
2019-07-28 23:00:00 13.6 5 Sudoeste 10 Sudoeste 0 -- -- 76
2019-07-28 22:00:00 14.3 8 Sudoeste 9 Sudoeste 0 -- -- 73
2019-07-28 21:00:00 16.9 4 Sudoeste 16 Sudeste 0 -- -- 63
2019-07-28 20:00:00 19.5 11 Sudeste 21 Sur 0 -- -- 54
2019-07-28 19:00:00 21 10 Sur 25 Sudeste 0 -- -- 48
2019-07-28 18:00:00 22.1 13 Sudeste 22 Sudeste 0 -- -- 45
2019-07-28 17:00:00 23 14 Nordeste 28 Este 0 -- -- 43
2019-07-28 16:00:00 23.8 7 Norte 26 Este 0 -- -- 37
2019-07-28 15:00:00 22.7 14 Nordeste 27 Sudeste 0 -- -- 41
2019-07-28 14:00:00 21.8 10 Este 26 Este 0 -- -- 39
2019-07-28 13:00:00 19.9 10 Noroeste 26 Oeste 0 -- -- 45
2019-07-28 12:00:00 17.8 15 Noroeste 31 Noroeste 0 -- -- 51
2019-07-28 11:00:00 16 16 Noroeste 33 Noroeste 0 -- -- 55
2019-07-28 10:00:00 13.7 18 Noroeste 51 Noroeste 0 -- -- 62
2019-07-28 09:00:00 12.3 23 Oeste 65 Oeste 0 -- -- 64
2019-07-28 08:00:00 10.2 51 Oeste 80 Oeste 0 -- -- 74
2019-07-28 07:00:00 8.7 64 Oeste 80 Oeste 0 -- -- 77
2019-07-28 06:00:00 7.9 37 Oeste 56 Oeste 0 -- -- 85
2019-07-28 05:00:00 9 29 Noroeste 42 Noroeste 0 -- -- 79
2019-07-28 04:00:00 9.7 16 Noroeste 55 Oeste 0 -- -- 76
2019-07-28 03:00:00 9.6 31 Noroeste 52 Noroeste 0 -- -- 79
2019-07-28 02:00:00 9.4 27 Noroeste 48 Oeste 0 -- -- 85
2019-07-28 01:00:00 10.1 30 Oeste 47 Noroeste 0 -- -- 88
2019-07-28 00:00:00 11 27 Noroeste 46 Oeste 0 -- -- 84
2019-07-27 23:00:00 12.1 26 Noroeste 45 Noroeste 0 -- -- 79
2019-07-26 12:00:00 22.8 14 Este 22 Este 0 -- -- 40
2019-07-26 11:00:00 22.3 5 Nordeste 19 Sur 0 -- -- 38
2019-07-26 10:00:00 21.2 10 Sur 20 Sur 0 -- -- 39
2019-07-26 09:00:00 22.6 11 Sur 29 Sur 0 -- -- 38
2019-07-26 08:00:00 20.9 15 Sur 23 Sur 0 -- -- 37
2019-07-26 07:00:00 19.3 14 Sudoeste 23 Sudoeste 0 -- -- 39
2019-07-26 06:00:00 19.1 16 Sudoeste 24 Sudoeste 0 -- -- 39
2019-07-26 05:00:00 18.6 15 Sudoeste 22 Sudoeste 0 -- -- 41
2019-07-26 04:00:00 18.5 14 Sudoeste 24 Sudoeste 0 -- -- 45
2019-07-26 03:00:00 18.4 15 Sudoeste 23 Sur 0 -- -- 47
2019-07-26 02:00:00 18.6 13 Sudoeste 22 Sur 0 -- -- 48
2019-07-26 01:00:00 18.7 13 Sudoeste 21 Sur 0 -- -- 51
2019-07-26 00:00:00 18.7 14 Sudoeste 18 Sudoeste 0 -- -- 51